Clearwater, FL

3:40 PM EDT on March 26, 2015 (GMT -0400)
N San Remo | Change Station
CLOSE
Current Station
Personal Weather Station
Location: Clearwater, FL
Elevation: 59 ft
Nearby Weather Stations

Elev 59 ft 27.97 °N, 82.78 °W | Updated 30 minutes ago

Clear
Clear
88.0 °F
Feels Like 99 °F
N
2.0
Wind Variable Wind from SSW
Gusts 2.0 mph

Today
High -- | Low -- °F
--% Chance of Precip.
Yesterday
High -- | Low -- °F
Precip. -- in
7:28 AM 7:45 PM
Waxing Crescent, 45% visible
Pressure 29.96 in
Visibility 10.0 miles
Clouds Few 5000 ft
Heat Index 99 °F
Dew Point 76 °F
Humidity 67%
Rainfall 0.00 in
Snow Depth Not available.
UV 0.0 out of 12
Pollen 9.10 out of 12
Air Quality Not available.
Flu Activity Not available.
METAR KPIE 261853Z COR 20016KT 10SM FEW050 28/21 A2996 RMK AO2 SLP143 T02780206

More Conditions Fewer Conditions

Pressure 29.96 in
Visibility 10.0 miles
Clouds Few 5000 ft
Heat Index 99 °F
Dew Point 76 °F
Humidity 67%
Rainfall 0.00 in
Snow Depth Not available.
UV 0.0 out of 12
Pollen 9.10 out of 12
Air Quality Not available.
Flu Activity Not available.
METAR KPIE 261853Z COR 20016KT 10SM FEW050 28/21 A2996 RMK AO2 SLP143 T02780206

More Conditions Fewer Conditions

10-Day Weather Forecast

Almanac

Astronomy

Mar. 26, 2015 Rise Set
Actual Time
Civil Twilight
Nautical Twilight
Astronomical Twilight
Moon
Length of Visible Light
Length of Day
Tomorrow will be .
, % of the Moon is Illuminated

Today's Extremes

State Highs State Lows

Community

WunderPhotos

Upload Photos

1,808,607 photos uploaded!

WunderBlogs® & News

Nearby

Air Quality

  Air Quality AQ Index Pollutant
Not available.

Snow Depth

Station Depth Elevation

Earthquake Activity

City Distance Mag. Time & Date
Minimum magnitude displayed is 2.5.

Coastal Water Temperatures

Place Temperature

Stations

Nearby Weather Stations

Station Location Temp. Windchill Dew Point Humidity Wind Precip. Elev Updated Type